This is the latest recevied weather packets stored in our database for station/object VK3PBR-10. If no packets are shown the sender has not sent any weather packets the latest 10 day(s).
| Time | Temp. | Humidity | Pressure | Rain* | Wind** | Luminosity | Snow |
|---|---|---|---|---|---|---|---|
| 1788058059 | 25.56° C | 34% | 1035.8 hPa | - | - | - | - |
| 1788057159 | 26.11° C | 33% | 1035.9 hPa | - | - | - | - |
| 1788056259 | 22.22° C | 37% | 1036.1 hPa | - | - | - | - |
| 1788055359 | 23.89° C | 37% | 1036.3 hPa | - | - | - | - |
| 1788054459 | 22.22° C | 40% | 1036.4 hPa | - | - | - | - |
| 1788053559 | 21.67° C | 39% | 1036.6 hPa | - | - | - | - |
| 1788052658 | 21.11° C | 42% | 1036.8 hPa | - | - | - | - |
| 1788051758 | 21.11° C | 42% | 1037 hPa | - | - | - | - |
| 1788050858 | 22.22° C | 37% | 1036.9 hPa | - | - | - | - |
| 1788049958 | 18.33° C | 47% | 1037.1 hPa | - | - | - | - |
| 1788049057 | 18.33° C | 47% | 1037.2 hPa | - | - | - | - |
| 1788048157 | 17.78° C | 48% | 1037.1 hPa | - | - | - | - |
| 1788047257 | 17.22° C | 51% | 1037.2 hPa | - | - | - | - |
| 1788046357 | 16.67° C | 53% | 1037.3 hPa | - | - | - | - |
| 1788045457 | 16.67° C | 55% | 1037.2 hPa | - | - | - | - |
| 1788044557 | 16.11° C | 57% | 1037.2 hPa | - | - | - | - |
| 1788043656 | 16.11° C | 58% | 1037.2 hPa | - | - | - | - |
| 1788042756 | 15.56° C | 59% | 1037.3 hPa | - | - | - | - |
| 1788041855 | 15° C | 60% | 1037.1 hPa | - | - | - | - |
| 1788040955 | 15° C | 61% | 1037.2 hPa | - | - | - | - |
| 1788040055 | 14.44° C | 62% | 1037.1 hPa | - | - | - | - |
| 1788039155 | 13.89° C | 62% | 1036.9 hPa | - | - | - | - |
| 1788038255 | 13.89° C | 63% | 1036.6 hPa | - | - | - | - |
| 1788037355 | 13.89° C | 63% | 1036.4 hPa | - | - | - | - |
| 1788036453 | 13.33° C | 63% | 1036.3 hPa | - | - | - | - |
* Rain since midnight (hover to see other rain measurements)
** Current wind speed in m/s (hover to see current wind gust speed)